East Dennis, Massachusetts
Current Conditions -  °F | °C
As of 12:56 PM on Wednesday 28 Jan 2015 (Local Time) from KHYA Reporting Station
Overcast Overcast  
Wind Chill:   Ceiling: 2300
Heat Index: 22°   Visibility: 9mi
Dew Point: 16°   Wind: 14mph
Humidity: 78%   Direction: 350°N
Pressure: 29.91"   Gusts: 22mph
Location:  41.74°N, 70.16°W
Report Text: KHYA 281756Z 35012G19KT 9SM OVC023 M06/M09 A2991 RMK AO2 SNB22E56 SLP131 P0000 60002 T10561089 11056 21094 51010 $
Loading
Personal Weather Stations






























Interactive Weather Map New forecast layout! Learn more

10-Day Weather Forecast

Advertisements
Track Severe Weather on mobile